Time;durP1;ratioP1;P1;durP2;ratioP2;P2;SDS_P1;SDS_P2;PMS_P1;PMS_P2;Temp;Humidity;BMP_temperature;BMP_pressure;BME280_temperature;BME280_humidity;BME280_pressure;Samples;Min_cycle;Max_cycle;Signal;HPM_P1;HPM_P2
2022/11/23 00:01:35;;;;;;;4.40;2.00;;;9.60;76.20;;;;;;5011443;28;20839;-72
2022/11/23 00:04:04;;;;;;;4.78;2.60;;;9.60;75.80;;;;;;5011736;28;20385;-72
2022/11/23 00:06:31;;;;;;;8.63;2.72;;;9.60;76.70;;;;;;5011746;28;20408;-74
2022/11/23 00:08:56;;;;;;;10.90;3.90;;;9.60;75.70;;;;;;5010245;28;20905;-73
2022/11/23 00:11:24;;;;;;;11.73;3.72;;;9.60;75.80;;;;;;5011179;28;20408;-72
2022/11/23 00:13:50;;;;;;;6.40;2.63;;;9.60;76.40;;;;;;5011466;28;20904;-74
2022/11/23 00:16:18;;;;;;;6.57;3.15;;;9.50;76.20;;;;;;5011452;28;20385;-72
2022/11/23 00:18:44;;;;;;;7.30;3.20;;;9.50;78.00;;;;;;5011363;28;20460;-73
2022/11/23 00:21:15;;;;;;;5.70;4.30;;;9.50;77.60;;;;;;5011703;28;20488;-74
2022/11/23 00:23:41;;;;;;;7.30;3.40;;;9.60;77.50;;;;;;5011552;28;20399;-74
2022/11/23 00:26:07;;;;;;;8.60;3.80;;;9.70;76.50;;;;;;5011319;28;20380;-74
2022/11/23 00:28:38;;;;;;;4.90;2.83;;;9.70;75.80;;;;;;5009982;28;20399;-73
2022/11/23 00:31:09;;;;;;;11.13;2.70;;;9.70;74.70;;;;;;5011401;28;20380;-73
2022/11/23 00:33:35;;;;;;;5.63;2.30;;;9.70;74.50;;;;;;5009771;28;20392;-74
2022/11/23 00:36:07;;;;;;;6.78;3.10;;;9.60;74.70;;;;;;5011482;28;20389;-73
2022/11/23 00:38:32;;;;;;;4.70;2.40;;;9.60;73.90;;;;;;5013091;28;20457;-73
2022/11/23 00:41:03;;;;;;;7.30;3.28;;;9.60;74.90;;;;;;5017666;28;20381;-72
2022/11/23 00:43:29;;;;;;;10.15;2.78;;;9.70;75.30;;;;;;5018349;28;20381;-72
2022/11/23 00:46:03;;;;;;;4.23;2.80;;;9.70;74.80;;;;;;5017979;28;20471;-74
2022/11/23 00:48:29;;;;;;;9.30;4.93;;;9.70;75.60;;;;;;5019337;28;20798;-74
2022/11/23 00:50:55;;;;;;;8.38;2.90;;;9.70;76.20;;;;;;5018470;28;20384;-74
2022/11/23 00:53:20;;;;;;;6.57;2.65;;;9.70;77.00;;;;;;5017973;28;20467;-74
2022/11/23 00:55:53;;;;;;;7.13;3.20;;;9.80;75.50;;;;;;5018496;28;20413;-73
2022/11/23 00:58:19;;;;;;;7.15;3.00;;;9.90;72.30;;;;;;5017707;28;20387;-72
2022/11/23 01:00:45;;;;;;;8.87;3.00;;;9.90;72.40;;;;;;5018079;28;20389;-72
2022/11/23 01:03:10;;;;;;;7.40;2.70;;;10.00;70.90;;;;;;5015954;28;20388;-72
2022/11/23 01:05:37;;;;;;;7.00;3.10;;;9.90;71.40;;;;;;5017631;28;20463;-72
2022/11/23 01:08:04;;;;;;;4.72;2.90;;;10.00;71.10;;;;;;5017517;28;20396;-72
2022/11/23 01:10:30;;;;;;;5.55;2.40;;;10.00;68.70;;;;;;5017506;28;20389;-72
2022/11/23 01:12:56;;;;;;;6.35;2.58;;;10.10;68.00;;;;;;5018650;28;20749;-73
2022/11/23 01:15:21;;;;;;;9.05;2.40;;;10.10;68.20;;;;;;5019018;28;20416;-73
2022/11/23 01:17:47;;;;;;;6.93;2.45;;;10.20;67.50;;;;;;5019759;28;20388;-72
2022/11/23 01:20:12;;;;;;;4.50;2.67;;;10.20;67.20;;;;;;5020143;28;20391;-73
2022/11/23 01:22:38;;;;;;;7.13;2.80;;;10.20;67.40;;;;;;5019944;28;20389;-72
2022/11/23 01:25:04;;;;;;;8.83;2.90;;;10.20;66.50;;;;;;5020633;28;20405;-73
2022/11/23 01:27:29;;;;;;;8.27;2.17;;;10.20;66.60;;;;;;5019757;28;20427;-71
2022/11/23 01:29:55;;;;;;;7.97;2.77;;;10.20;66.30;;;;;;5018499;28;20875;-71
2022/11/23 01:32:20;;;;;;;9.20;2.53;;;10.30;65.80;;;;;;5020531;28;20391;-72
2022/11/23 01:34:46;;;;;;;6.82;2.60;;;10.30;64.70;;;;;;5019859;28;20415;-73
2022/11/23 01:37:11;;;;;;;8.95;2.50;;;10.30;66.50;;;;;;5019963;28;20384;-72
2022/11/23 01:39:37;;;;;;;7.22;2.40;;;10.30;64.10;;;;;;5020206;28;20483;-73
2022/11/23 01:42:05;;;;;;;9.27;2.70;;;10.30;64.40;;;;;;5019661;28;20381;-72
2022/11/23 01:44:33;;;;;;;6.63;2.50;;;10.40;63.40;;;;;;5022385;28;20384;-73
2022/11/23 01:47:08;;;;;;;8.25;2.78;;;10.30;64.00;;;;;;5022933;28;20483;-72
2022/11/23 01:49:42;;;;;;;6.72;2.10;;;10.20;64.70;;;;;;5020448;28;20400;-72
2022/11/23 01:52:24;;;;;;;10.00;3.10;;;10.20;64.90;;;;;;5017105;28;20396;-72
2022/11/23 01:54:55;;;;;;;6.30;2.25;;;10.10;66.80;;;;;;5015376;28;20416;-71
2022/11/23 01:57:33;;;;;;;5.63;3.00;;;10.20;65.60;;;;;;5015719;28;20437;-71
2022/11/23 01:59:58;;;;;;;9.70;2.80;;;10.20;65.10;;;;;;5015380;28;20372;-72
2022/11/23 02:02:26;;;;;;;11.40;3.37;;;10.20;64.10;;;;;;5016226;28;20831;-73
2022/11/23 02:04:53;;;;;;;11.15;3.00;;;10.20;64.40;;;;;;5015596;28;20423;-73
2022/11/23 02:07:21;;;;;;;3.72;2.20;;;10.30;63.10;;;;;;5017636;28;20876;-72
2022/11/23 02:09:47;;;;;;;8.45;2.90;;;10.30;62.60;;;;;;5016572;28;20384;-72
2022/11/23 02:12:13;;;;;;;9.80;3.40;;;10.30;62.90;;;;;;5017974;28;20735;-73
2022/11/23 02:14:40;;;;;;;10.93;2.80;;;10.30;63.80;;;;;;5016585;28;20408;-73
2022/11/23 02:17:06;;;;;;;8.02;2.50;;;10.50;63.30;;;;;;5017769;28;20479;-73
2022/11/23 02:19:53;;;;;;;12.03;3.20;;;10.50;61.60;;;;;;5017400;28;20440;-73
2022/11/23 02:22:30;;;;;;;11.50;2.60;;;10.40;61.90;;;;;;5018744;28;20438;-72
2022/11/23 02:24:55;;;;;;;8.18;2.80;;;10.50;61.60;;;;;;5017924;28;20400;-74
2022/11/23 02:27:22;;;;;;;7.27;2.80;;;10.30;62.70;;;;;;5017428;28;20389;-74
2022/11/23 02:29:49;;;;;;;8.25;3.22;;;10.30;62.30;;;;;;5016113;28;20757;-72
2022/11/23 02:32:21;;;;;;;10.55;2.60;;;10.40;62.70;;;;;;5015851;28;20393;-72
2022/11/23 02:34:47;;;;;;;6.93;2.95;;;10.40;62.60;;;;;;5016077;28;20499;-72
2022/11/23 02:37:13;;;;;;;9.98;3.17;;;10.40;62.00;;;;;;5016766;28;20461;-72
2022/11/23 02:39:46;;;;;;;11.00;2.70;;;10.40;61.80;;;;;;5016644;28;20987;-71
2022/11/23 02:42:12;;;;;;;11.10;2.60;;;10.30;62.30;;;;;;5016905;28;20464;-72
2022/11/23 02:45:06;;;;;;;5.50;2.43;;;10.30;61.80;;;;;;5015075;28;20401;-73
2022/11/23 02:47:32;;;;;;;7.50;2.75;;;10.40;61.30;;;;;;4995160;28;20491;-73
2022/11/23 02:49:57;;;;;;;11.17;3.17;;;10.40;61.00;;;;;;5018405;28;20550;-72
2022/11/23 02:52:23;;;;;;;8.83;2.40;;;10.30;61.90;;;;;;5024675;28;20496;-71
2022/11/23 02:54:49;;;;;;;9.82;2.63;;;10.30;63.20;;;;;;5027197;28;20412;-71
2022/11/23 02:57:14;;;;;;;13.77;2.88;;;10.30;65.50;;;;;;5025930;28;20763;-73
2022/11/23 02:59:40;;;;;;;8.00;2.80;;;10.40;66.40;;;;;;5021606;28;20396;-72
2022/11/23 03:02:05;;;;;;;11.80;3.17;;;10.30;69.40;;;;;;5019883;28;20961;-73
2022/11/23 03:04:31;;;;;;;11.30;4.38;;;10.30;71.20;;;;;;5020010;28;20424;-73
2022/11/23 03:06:57;;;;;;;9.63;2.55;;;10.10;74.00;;;;;;5017876;28;20853;-72
2022/11/23 03:09:24;;;;;;;6.13;2.47;;;10.00;77.60;;;;;;5018933;28;20393;-73
2022/11/23 03:11:51;;;;;;;6.68;2.35;;;10.00;78.90;;;;;;5016741;28;20736;-73
2022/11/23 03:14:16;;;;;;;10.70;2.20;;;10.00;80.00;;;;;;5015224;28;20467;-72
2022/11/23 03:16:42;;;;;;;6.68;3.45;;;9.90;80.20;;;;;;5018650;28;20385;-72
2022/11/23 03:19:07;;;;;;;6.78;2.70;;;9.90;82.60;;;;;;5018088;28;20467;-72
2022/11/23 03:21:33;;;;;;;5.30;2.00;;;10.00;82.40;;;;;;5017628;28;20396;-73
2022/11/23 03:23:58;;;;;;;10.48;2.88;;;9.80;84.10;;;;;;5018818;28;20377;-73
2022/11/23 03:26:24;;;;;;;7.37;2.70;;;9.80;86.00;;;;;;5017755;28;20484;-72
2022/11/23 03:28:49;;;;;;;8.17;3.03;;;9.80;87.60;;;;;;5017647;28;20418;-72
2022/11/23 03:31:15;;;;;;;8.50;3.10;;;9.60;88.80;;;;;;5017239;28;20389;-75
2022/11/23 03:33:40;;;;;;;11.00;3.30;;;9.60;90.70;;;;;;5018520;28;20410;-72
2022/11/23 03:36:06;;;;;;;9.05;3.00;;;9.60;90.20;;;;;;5018077;28;20500;-72
2022/11/23 03:38:32;;;;;;;6.38;2.33;;;9.50;90.30;;;;;;5018081;28;20394;-73
2022/11/23 03:40:57;;;;;;;13.50;3.20;;;9.50;90.30;;;;;;5017250;28;20777;-73
2022/11/23 03:43:23;;;;;;;7.88;2.60;;;9.50;89.70;;;;;;5016242;28;20862;-73
2022/11/23 03:45:49;;;;;;;9.23;3.30;;;9.50;90.60;;;;;;5016562;28;20852;-72
2022/11/23 03:48:15;;;;;;;10.27;2.35;;;9.60;88.20;;;;;;5018413;28;20385;-72
2022/11/23 03:50:40;;;;;;;7.87;2.60;;;9.60;87.00;;;;;;5015321;28;20442;-72
2022/11/23 03:53:06;;;;;;;7.70;2.60;;;9.60;85.80;;;;;;5015436;28;20396;-73
2022/11/23 03:55:33;;;;;;;7.65;2.95;;;9.70;84.60;;;;;;5014791;28;20411;-72
2022/11/23 03:57:58;;;;;;;9.77;2.80;;;9.70;84.50;;;;;;5015099;28;20381;-73
2022/11/23 04:00:29;;;;;;;9.67;3.30;;;9.70;84.40;;;;;;5015359;28;20391;-73
2022/11/23 04:02:54;;;;;;;5.57;2.47;;;9.70;83.70;;;;;;5016574;28;20438;-72
2022/11/23 04:05:20;;;;;;;7.10;2.80;;;9.70;82.20;;;;;;5017064;28;20742;-74
2022/11/23 04:07:47;;;;;;;8.50;2.87;;;9.70;81.90;;;;;;5016216;28;20396;-72
2022/11/23 04:10:17;;;;;;;6.45;2.08;;;9.70;83.00;;;;;;5015535;28;20399;-73
2022/11/23 04:12:43;;;;;;;9.20;2.90;;;9.80;81.10;;;;;;5016828;28;20384;-72
2022/11/23 04:15:09;;;;;;;9.83;2.70;;;9.70;82.40;;;;;;5015464;28;20408;-73
2022/11/23 04:17:35;;;;;;;9.05;3.63;;;9.80;82.40;;;;;;5014781;28;20427;-71
2022/11/23 04:20:01;;;;;;;12.50;3.27;;;9.80;83.90;;;;;;5014929;28;20407;-72
2022/11/23 04:22:26;;;;;;;7.72;3.35;;;9.90;82.20;;;;;;5011383;28;20762;-72
2022/11/23 04:24:52;;;;;;;10.73;2.80;;;9.80;83.80;;;;;;5011046;28;20431;-72
2022/11/23 04:27:17;;;;;;;11.55;3.38;;;9.90;82.00;;;;;;5011339;28;20393;-72
2022/11/23 04:29:43;;;;;;;7.22;3.30;;;9.70;84.10;;;;;;5011081;28;20392;-73
2022/11/23 04:32:08;;;;;;;6.78;2.60;;;9.70;85.30;;;;;;5010936;28;20399;-72
2022/11/23 04:34:35;;;;;;;11.40;2.80;;;9.70;83.50;;;;;;5014005;28;20409;-73
2022/11/23 04:37:00;;;;;;;8.90;2.80;;;9.70;83.60;;;;;;5026020;28;20746;-72
2022/11/23 04:39:26;;;;;;;9.73;3.60;;;9.60;84.60;;;;;;5025044;28;20400;-73
2022/11/23 04:41:51;;;;;;;13.53;4.90;;;9.60;84.70;;;;;;5012655;28;20369;-72
2022/11/23 04:44:19;;;;;;;8.93;2.80;;;9.70;86.10;;;;;;5011338;28;20420;-72
2022/11/23 04:46:45;;;;;;;8.48;3.30;;;9.70;83.90;;;;;;5010820;28;20396;-72
2022/11/23 04:49:11;;;;;;;10.73;3.87;;;9.60;85.60;;;;;;5011158;28;20385;-73
2022/11/23 04:51:36;;;;;;;10.43;3.00;;;9.70;84.30;;;;;;5010673;28;20412;-72
2022/11/23 04:54:02;;;;;;;8.93;3.07;;;9.70;82.50;;;;;;5010726;28;20420;-72
2022/11/23 04:56:27;;;;;;;8.40;2.47;;;9.60;82.20;;;;;;5011401;28;20385;-72
2022/11/23 04:58:53;;;;;;;10.13;3.10;;;9.70;82.00;;;;;;5014375;28;20406;-73
2022/11/23 05:01:18;;;;;;;8.80;2.80;;;9.70;82.00;;;;;;5018403;28;20393;-73
2022/11/23 05:03:44;;;;;;;9.30;3.70;;;9.60;82.10;;;;;;5017806;28;20384;-74
2022/11/23 05:06:10;;;;;;;10.38;3.58;;;9.60;84.50;;;;;;5015655;28;20980;-72
2022/11/23 05:08:36;;;;;;;9.55;3.30;;;9.80;82.00;;;;;;5015690;28;20775;-72
2022/11/23 05:11:02;;;;;;;11.30;3.40;;;9.70;81.60;;;;;;5014718;28;20381;-73
2022/11/23 05:13:27;;;;;;;6.47;2.40;;;9.70;82.40;;;;;;5012676;28;20412;-73
2022/11/23 05:15:53;;;;;;;12.33;4.27;;;9.80;78.50;;;;;;5011219;28;20817;-73
2022/11/23 05:18:18;;;;;;;9.97;3.40;;;9.70;76.70;;;;;;5011568;28;20714;-72
2022/11/23 05:20:46;;;;;;;8.77;3.53;;;9.70;76.30;;;;;;5010637;28;20387;-72
2022/11/23 05:23:11;;;;;;;11.15;3.00;;;9.80;76.30;;;;;;5010248;28;20392;-73
2022/11/23 05:25:37;;;;;;;10.95;2.58;;;9.90;73.90;;;;;;5011007;28;20388;-71
2022/11/23 05:28:03;;;;;;;15.15;3.63;;;9.90;74.30;;;;;;5014002;28;20753;-72
2022/11/23 05:30:29;;;;;;;8.90;2.80;;;10.00;75.10;;;;;;5014238;28;20396;-72
2022/11/23 05:33:00;;;;;;;11.40;3.80;;;9.90;77.30;;;;;;5013997;28;20400;-74
2022/11/23 05:35:26;;;;;;;11.35;3.20;;;9.80;81.50;;;;;;5014876;28;20495;-73
2022/11/23 05:37:51;;;;;;;8.60;3.30;;;9.60;85.30;;;;;;5014180;28;20416;-73
2022/11/23 05:40:17;;;;;;;11.47;3.07;;;9.50;88.50;;;;;;5014053;28;20958;-72
2022/11/23 05:42:42;;;;;;;11.80;3.13;;;9.50;92.60;;;;;;5013793;28;20893;-72
2022/11/23 05:45:08;;;;;;;10.60;3.08;;;9.50;94.00;;;;;;5013645;28;20881;-73
2022/11/23 05:47:34;;;;;;;14.73;3.70;;;9.50;93.70;;;;;;5014102;28;20403;-73
2022/11/23 05:49:59;;;;;;;13.55;3.60;;;9.40;95.00;;;;;;5013828;28;20381;-72
2022/11/23 05:52:25;;;;;;;13.05;3.13;;;9.40;96.80;;;;;;5013710;28;20763;-72
2022/11/23 05:54:51;;;;;;;11.90;3.55;;;9.30;97.60;;;;;;5013806;28;20412;-72
2022/11/23 05:57:16;;;;;;;12.43;3.00;;;9.20;98.30;;;;;;5014279;28;20384;-73
2022/11/23 05:59:42;;;;;;;11.88;3.25;;;9.30;97.50;;;;;;5014098;28;20484;-74
2022/11/23 06:02:08;;;;;;;11.55;3.58;;;9.30;97.10;;;;;;5013275;28;20446;-72
2022/11/23 06:04:34;;;;;;;11.03;4.20;;;9.30;97.60;;;;;;5013505;28;20396;-73
2022/11/23 06:06:59;;;;;;;11.10;3.60;;;9.40;97.40;;;;;;5013305;28;20396;-74
2022/11/23 06:09:26;;;;;;;14.45;3.30;;;9.30;98.90;;;;;;5013386;28;20761;-74
2022/11/23 06:11:51;;;;;;;7.18;3.25;;;9.20;99.10;;;;;;5013250;28;20389;-73
2022/11/23 06:14:17;;;;;;;10.70;3.83;;;9.10;99.70;;;;;;5013677;28;20927;-72
2022/11/23 06:16:42;;;;;;;12.87;3.70;;;9.10;99.50;;;;;;5011942;28;20790;-71
2022/11/23 06:19:08;;;;;;;6.23;3.00;;;9.20;98.60;;;;;;5013400;28;20793;-72
2022/11/23 06:21:33;;;;;;;11.33;3.67;;;9.20;99.20;;;;;;5013736;28;20389;-74
2022/11/23 06:23:59;;;;;;;9.97;3.00;;;9.30;95.40;;;;;;5013623;28;20389;-74
2022/11/23 06:26:24;;;;;;;11.37;3.07;;;9.30;95.20;;;;;;5013550;28;20483;-72
2022/11/23 06:28:50;;;;;;;14.80;3.43;;;9.20;95.90;;;;;;5013552;28;20376;-72
2022/11/23 06:31:16;;;;;;;11.43;3.20;;;9.30;96.00;;;;;;5012136;28;20580;-72
2022/11/23 06:33:41;;;;;;;10.47;4.00;;;9.30;96.40;;;;;;5012525;28;20383;-72
2022/11/23 06:36:10;;;;;;;13.75;4.78;;;9.30;96.50;;;;;;5012066;28;20393;-74
2022/11/23 06:38:35;;;;;;;11.57;3.20;;;9.30;96.00;;;;;;5022149;28;20393;-73
2022/11/23 06:41:02;;;;;;;13.05;3.40;;;9.30;96.10;;;;;;5021454;28;20389;-72
2022/11/23 06:43:28;;;;;;;15.97;3.90;;;9.20;94.70;;;;;;5022378;28;20404;-72
2022/11/23 06:45:55;;;;;;;10.23;4.20;;;9.20;95.90;;;;;;5029242;28;20411;-74
2022/11/23 06:48:21;;;;;;;12.73;4.88;;;9.20;96.90;;;;;;5025750;28;20778;-74
2022/11/23 06:50:47;;;;;;;11.95;3.70;;;9.30;98.10;;;;;;5016831;28;20392;-73
2022/11/23 06:53:12;;;;;;;11.00;3.60;;;9.30;96.00;;;;;;5016156;28;20515;-73
2022/11/23 06:55:38;;;;;;;15.60;4.70;;;9.30;93.30;;;;;;5018034;28;20396;-73
2022/11/23 06:58:05;;;;;;;13.52;4.10;;;9.30;94.80;;;;;;5019550;28;20745;-74
2022/11/23 07:00:31;;;;;;;16.33;4.57;;;9.30;93.40;;;;;;5021708;28;20385;-73
2022/11/23 07:02:57;;;;;;;12.98;4.05;;;9.30;94.20;;;;;;5020457;28;20759;-74
2022/11/23 07:05:23;;;;;;;20.00;4.60;;;9.30;89.40;;;;;;5035311;28;20381;-73
2022/11/23 07:07:49;;;;;;;16.70;5.25;;;9.30;90.60;;;;;;5033069;28;20381;-72
2022/11/23 07:10:14;;;;;;;16.02;4.30;;;9.40;90.30;;;;;;5023151;28;20383;-73
2022/11/23 07:12:40;;;;;;;12.23;4.30;;;9.30;90.10;;;;;;5013581;28;20557;-72
2022/11/23 07:15:07;;;;;;;13.43;4.17;;;9.30;91.30;;;;;;5012463;28;20436;-72
2022/11/23 07:17:32;;;;;;;12.93;4.30;;;9.30;92.10;;;;;;5012998;28;20404;-74
2022/11/23 07:19:58;;;;;;;15.40;4.43;;;9.30;91.50;;;;;;5012948;28;20467;-73
2022/11/23 07:22:23;;;;;;;14.60;4.43;;;9.30;91.40;;;;;;5027136;28;20420;-72
2022/11/23 07:24:49;;;;;;;13.70;4.78;;;9.30;90.60;;;;;;5029699;28;20457;-73
2022/11/23 07:27:19;;;;;;;16.98;3.90;;;9.40;88.60;;;;;;5020046;28;20917;-74
2022/11/23 07:29:44;;;;;;;9.48;3.80;;;9.40;86.70;;;;;;5012725;28;20384;-73
2022/11/23 07:32:10;;;;;;;14.27;4.30;;;9.40;86.60;;;;;;5012825;28;20489;-73
2022/11/23 07:34:36;;;;;;;14.02;4.55;;;9.40;84.90;;;;;;5012790;28;20448;-72
2022/11/23 07:37:03;;;;;;;19.35;4.63;;;9.40;86.30;;;;;;5014403;28;20389;-72
2022/11/23 07:39:29;;;;;;;11.57;4.10;;;9.40;85.50;;;;;;5013376;28;20472;-73
2022/11/23 07:41:55;;;;;;;14.15;3.75;;;9.40;84.30;;;;;;5013997;28;20451;-74
2022/11/23 07:44:21;;;;;;;12.00;4.40;;;9.60;81.80;;;;;;5013594;28;20399;-74
2022/11/23 07:46:46;;;;;;;13.00;4.40;;;9.80;81.10;;;;;;5012843;28;20404;-74
2022/11/23 07:49:12;;;;;;;11.40;4.47;;;9.70;79.20;;;;;;5011589;28;20384;-73
2022/11/23 07:51:37;;;;;;;14.23;4.40;;;9.70;79.30;;;;;;5012096;28;20496;-73
2022/11/23 07:54:03;;;;;;;10.90;3.67;;;9.70;77.70;;;;;;5012479;28;20440;-72
2022/11/23 07:56:29;;;;;;;11.90;3.30;;;9.80;76.30;;;;;;5011880;28;20482;-74
2022/11/23 07:58:54;;;;;;;11.50;4.07;;;9.90;71.40;;;;;;5012093;28;20393;-73
2022/11/23 08:01:20;;;;;;;13.30;5.00;;;10.00;65.30;;;;;;5010546;28;20512;-75
2022/11/23 08:03:46;;;;;;;10.48;3.03;;;10.20;62.80;;;;;;5012058;28;20770;-72
2022/11/23 08:06:13;;;;;;;11.10;2.83;;;10.30;59.10;;;;;;5010427;28;20397;-72
2022/11/23 08:08:39;;;;;;;13.48;3.40;;;10.40;56.40;;;;;;5014131;28;20878;-75
2022/11/23 08:11:09;;;;;;;12.25;3.92;;;10.40;53.90;;;;;;5014087;28;20408;-73
2022/11/23 08:13:38;;;;;;;11.02;3.70;;;10.50;55.10;;;;;;5016956;28;20393;-75
2022/11/23 08:16:04;;;;;;;11.30;4.93;;;10.50;54.10;;;;;;5015515;28;20405;-73
2022/11/23 08:18:30;;;;;;;12.55;3.90;;;10.60;52.80;;;;;;5016163;28;20392;-75
2022/11/23 08:21:01;;;;;;;16.30;6.30;;;10.70;52.60;;;;;;5015588;28;20396;-75
2022/11/23 08:23:27;;;;;;;13.23;3.88;;;10.90;53.20;;;;;;5015500;28;20424;-76
2022/11/23 08:25:53;;;;;;;16.38;6.05;;;10.90;49.50;;;;;;5014892;28;20412;-75
2022/11/23 08:28:19;;;;;;;15.52;5.35;;;10.90;50.90;;;;;;5014426;28;20388;-75
2022/11/23 08:30:45;;;;;;;11.43;3.97;;;10.80;49.60;;;;;;5013470;28;20392;-75
2022/11/23 08:33:12;;;;;;;11.57;4.28;;;10.70;49.30;;;;;;5013784;28;20820;-75
2022/11/23 08:35:39;;;;;;;15.38;4.80;;;10.60;50.10;;;;;;5030093;28;20414;-74
2022/11/23 08:38:06;;;;;;;18.20;5.80;;;10.60;50.50;;;;;;5036200;28;20465;-73
2022/11/23 08:40:32;;;;;;;18.83;6.60;;;10.50;50.80;;;;;;5021972;28;20392;-75
2022/11/23 08:42:57;;;;;;;12.38;4.30;;;10.40;52.70;;;;;;5015973;28;20866;-74
2022/11/23 08:45:23;;;;;;;14.65;4.68;;;10.30;52.10;;;;;;5028387;23;20400;-73
2022/11/23 08:47:49;;;;;;;19.38;3.85;;;10.20;53.90;;;;;;5012475;28;20377;-74
2022/11/23 08:50:16;;;;;;;12.40;4.70;;;10.30;50.40;;;;;;5016640;28;20391;-74
2022/11/23 08:52:42;;;;;;;15.25;3.47;;;10.30;50.80;;;;;;5018102;28;20399;-74
2022/11/23 08:55:08;;;;;;;19.40;5.53;;;10.30;50.10;;;;;;5012335;28;20420;-74
2022/11/23 08:57:34;;;;;;;12.93;4.18;;;10.30;52.00;;;;;;5013057;28;20388;-73
2022/11/23 08:59:59;;;;;;;17.47;4.97;;;10.30;50.70;;;;;;5014500;28;20572;-72
2022/11/23 09:02:25;;;;;;;19.47;5.93;;;10.30;50.30;;;;;;5016274;28;20388;-72
2022/11/23 09:04:51;;;;;;;23.43;7.03;;;10.30;50.80;;;;;;5016559;28;20392;-73
2022/11/23 09:07:16;;;;;;;18.27;6.30;;;10.30;50.90;;;;;;5016953;28;20391;-74
2022/11/23 09:09:42;;;;;;;14.43;4.20;;;10.30;51.20;;;;;;5017856;28;20939;-74
2022/11/23 09:12:07;;;;;;;21.70;6.20;;;10.30;48.40;;;;;;5018200;28;20403;-74
2022/11/23 09:14:33;;;;;;;15.52;6.63;;;10.40;49.50;;;;;;5016871;28;20399;-76
2022/11/23 09:17:03;;;;;;;14.20;4.30;;;10.40;48.80;;;;;;5019499;28;20385;-74
2022/11/23 09:19:28;;;;;;;15.50;5.30;;;10.40;47.20;;;;;;5024615;28;20896;-74
2022/11/23 09:21:54;;;;;;;14.10;4.65;;;10.50;48.00;;;;;;5022736;28;20381;-75
2022/11/23 09:24:19;;;;;;;14.73;4.65;;;10.40;47.30;;;;;;5016671;28;20523;-75
2022/11/23 09:26:45;;;;;;;14.60;4.23;;;10.50;48.10;;;;;;5021205;28;20387;-74
2022/11/23 09:29:11;;;;;;;18.53;5.80;;;10.40;47.20;;;;;;5027297;28;20768;-75
2022/11/23 09:31:37;;;;;;;16.50;6.23;;;10.50;48.30;;;;;;5033479;28;20402;-74
2022/11/23 09:34:03;;;;;;;15.35;5.50;;;10.50;49.10;;;;;;5033798;28;20810;-74
2022/11/23 09:36:28;;;;;;;21.10;6.57;;;10.50;47.80;;;;;;5033827;28;20401;-74
2022/11/23 09:38:54;;;;;;;16.17;5.93;;;10.50;48.50;;;;;;5028924;28;20392;-77
2022/11/23 09:41:46;;;;;;;18.93;5.50;;;10.60;47.10;;;;;;5023787;28;20396;-75
2022/11/23 09:44:48;;;;;;;17.27;5.40;;;10.60;45.70;;;;;;5015822;28;20773;-75
2022/11/23 09:47:23;;;;;;;16.47;5.50;;;10.70;45.10;;;;;;5015571;28;20392;-75
2022/11/23 09:50:06;;;;;;;12.88;5.22;;;10.60;43.20;;;;;;5015591;28;20395;-74
2022/11/23 09:52:34;;;;;;;22.30;7.95;;;10.70;44.50;;;;;;5014407;28;20922;-74
2022/11/23 09:55:08;;;;;;;21.77;5.75;;;10.70;44.30;;;;;;5015381;28;20446;-75
2022/11/23 09:57:35;;;;;;;16.60;4.60;;;10.70;43.00;;;;;;5015119;28;20421;-74
2022/11/23 10:00:05;;;;;;;19.92;6.55;;;10.70;41.80;;;;;;5015241;28;20392;-74
2022/11/23 10:02:35;;;;;;;20.63;5.75;;;10.80;42.90;;;;;;5013589;28;20437;-75
2022/11/23 10:05:03;;;;;;;22.38;7.03;;;10.80;42.30;;;;;;5014841;28;20454;-75
2022/11/23 10:07:45;;;;;;;24.05;8.23;;;10.70;42.50;;;;;;5014964;28;20409;-76
2022/11/23 10:10:51;;;;;;;21.15;7.75;;;10.70;44.80;;;;;;5015242;28;20699;-74
2022/11/23 10:13:41;;;;;;;21.08;7.60;;;10.90;43.20;;;;;;5015990;28;20459;-76
2022/11/23 10:16:19;;;;;;;15.25;4.28;;;10.90;41.70;;;;;;5017132;28;20823;-75
2022/11/23 10:19:05;;;;;;;21.05;7.53;;;10.90;39.00;;;;;;5016865;28;20380;-75
2022/11/23 10:21:42;;;;;;;14.75;4.45;;;10.90;41.10;;;;;;5015313;28;20450;-74
2022/11/23 10:24:12;;;;;;;12.47;4.60;;;10.90;39.10;;;;;;5014936;28;20423;-75
2022/11/23 10:26:42;;;;;;;16.90;3.80;;;10.90;37.40;;;;;;5014766;28;20396;-74
2022/11/23 10:29:13;;;;;;;13.90;5.15;;;10.90;37.80;;;;;;5013979;28;20405;-74
2022/11/23 10:31:44;;;;;;;20.52;7.43;;;11.00;37.80;;;;;;5017413;28;20397;-74
2022/11/23 10:34:12;;;;;;;16.15;6.20;;;11.00;38.30;;;;;;5015148;28;20401;-74
2022/11/23 10:36:39;;;;;;;14.35;6.10;;;11.20;37.80;;;;;;5014967;28;20400;-74
2022/11/23 10:39:11;;;;;;;23.15;6.28;;;11.40;36.20;;;;;;5015176;28;20397;-75
2022/11/23 10:41:37;;;;;;;16.02;6.30;;;11.40;37.20;;;;;;5014941;28;20432;-73
2022/11/23 10:44:13;;;;;;;21.20;7.53;;;11.20;37.10;;;;;;5015283;28;20384;-74
2022/11/23 10:46:40;;;;;;;17.73;6.00;;;11.00;38.90;;;;;;5015161;28;20395;-74
2022/11/23 10:49:21;;;;;;;17.67;6.32;;;10.80;37.70;;;;;;5015831;28;20389;-75
2022/11/23 10:52:17;;;;;;;19.85;6.28;;;10.70;39.30;;;;;;5014820;28;20385;-75
2022/11/23 10:54:53;;;;;;;22.25;6.72;;;10.70;40.60;;;;;;5010787;28;20478;-74
2022/11/23 10:57:29;;;;;;;16.73;4.40;;;10.80;39.90;;;;;;5014214;28;20394;-75
2022/11/23 11:00:14;;;;;;;17.55;5.88;;;10.90;38.10;;;;;;5014395;28;20392;-75
2022/11/23 11:02:41;;;;;;;20.02;3.67;;;10.90;38.10;;;;;;5014586;28;20472;-74
2022/11/23 11:05:52;;;;;;;15.67;4.53;;;10.90;36.60;;;;;;5014183;28;20389;-74
2022/11/23 11:08:19;;;;;;;19.08;5.35;;;10.90;37.20;;;;;;5005448;28;20401;-74
2022/11/23 11:10:57;;;;;;;15.93;4.80;;;10.90;37.80;;;;;;5014228;28;20396;-75
2022/11/23 11:13:25;;;;;;;17.48;7.53;;;10.90;37.80;;;;;;5012636;28;20392;-74
2022/11/23 11:15:53;;;;;;;16.00;5.43;;;10.90;38.30;;;;;;5023623;28;20412;-74
2022/11/23 11:18:19;;;;;;;16.65;4.70;;;10.90;38.60;;;;;;5023888;28;20519;-75
2022/11/23 11:20:45;;;;;;;25.88;6.10;;;10.90;37.20;;;;;;5022080;28;20396;-73
2022/11/23 11:23:20;;;;;;;22.37;6.93;;;10.90;38.30;;;;;;5015872;28;20883;-74
2022/11/23 11:25:47;;;;;;;19.17;5.85;;;11.00;38.50;;;;;;5014045;28;20737;-74
2022/11/23 11:28:32;;;;;;;17.63;5.33;;;11.00;38.30;;;;;;5014618;28;20376;-74
2022/11/23 11:31:25;;;;;;;19.65;5.97;;;11.10;37.20;;;;;;5020119;28;20846;-73
2022/11/23 11:34:12;;;;;;;14.85;3.90;;;11.00;37.40;;;;;;5024094;28;20385;-74
2022/11/23 11:36:46;;;;;;;9.95;5.63;;;11.00;36.90;;;;;;5019963;28;20485;-75
2022/11/23 11:39:21;;;;;;;15.25;4.60;;;11.10;37.30;;;;;;5019300;28;20397;-75
2022/11/23 11:41:50;;;;;;;11.80;3.33;;;11.00;34.60;;;;;;5018057;28;20388;-74
2022/11/23 11:44:22;;;;;;;16.42;4.60;;;11.10;34.50;;;;;;5018641;28;20392;-75
2022/11/23 11:46:58;;;;;;;15.63;4.85;;;11.00;35.50;;;;;;5014581;28;20401;-74
2022/11/23 11:49:36;;;;;;;19.17;6.35;;;11.10;35.10;;;;;;5012286;28;20506;-74
2022/11/23 11:52:22;;;;;;;9.70;3.83;;;11.30;34.50;;;;;;5013266;28;20726;-74
2022/11/23 11:55:03;;;;;;;12.13;5.20;;;11.50;32.20;;;;;;5011285;28;20436;-74
2022/11/23 11:58:01;;;;;;;15.13;3.57;;;11.80;32.70;;;;;;5012927;28;20417;-74
2022/11/23 12:00:28;;;;;;;12.85;3.72;;;11.80;30.40;;;;;;5013045;28;20802;-74
2022/11/23 12:03:24;;;;;;;15.57;5.18;;;11.70;31.00;;;;;;5012541;28;20749;-74
2022/11/23 12:06:00;;;;;;;13.55;4.32;;;11.70;32.50;;;;;;5012856;28;20385;-75
2022/11/23 12:09:03;;;;;;;13.43;4.50;;;11.70;31.20;;;;;;5012630;28;20416;-74
2022/11/23 12:11:29;;;;;;;10.38;3.63;;;11.70;31.80;;;;;;5013204;28;20389;-76
2022/11/23 12:14:05;;;;;;;7.65;2.92;;;11.90;31.20;;;;;;5013052;28;20385;-75
2022/11/23 12:17:01;;;;;;;11.82;3.22;;;11.90;30.50;;;;;;5014502;28;20381;-74
2022/11/23 12:19:35;;;;;;;12.13;3.60;;;12.10;30.10;;;;;;5010208;28;20868;-74
2022/11/23 12:22:19;;;;;;;14.15;4.35;;;12.20;30.00;;;;;;5012856;28;20393;-75
2022/11/23 12:24:57;;;;;;;12.50;2.70;;;12.20;30.00;;;;;;5014428;28;20385;-76
2022/11/23 12:27:31;;;;;;;16.73;5.20;;;12.30;29.40;;;;;;5014292;28;20519;-75
2022/11/23 12:30:15;;;;;;;14.25;3.95;;;12.30;30.40;;;;;;5013339;28;20385;-74
2022/11/23 12:33:33;;;;;;;10.98;3.42;;;12.30;30.70;;;;;;5013301;28;20389;-75
2022/11/23 12:36:10;;;;;;;7.80;2.40;;;12.20;30.20;;;;;;4996459;28;20416;-74
2022/11/23 12:39:06;;;;;;;10.32;4.43;;;12.30;29.30;;;;;;5016086;28;20393;-74
2022/11/23 12:41:58;;;;;;;12.05;3.42;;;12.30;30.50;;;;;;5012227;28;20731;-75
2022/11/23 12:44:50;;;;;;;11.35;3.72;;;12.40;28.80;;;;;;5015647;28;20377;-75
2022/11/23 12:47:37;;;;;;;10.57;4.22;;;12.40;28.80;;;;;;5015915;28;20389;-75
2022/11/23 12:50:11;;;;;;;11.65;4.28;;;12.40;29.70;;;;;;5014221;28;20451;-75
2022/11/23 12:53:04;;;;;;;9.63;3.15;;;12.40;29.70;;;;;;5013223;28;20408;-75
2022/11/23 12:55:55;;;;;;;12.10;3.50;;;12.40;30.20;;;;;;5021063;28;20412;-74
2022/11/23 12:58:29;;;;;;;9.80;4.00;;;12.30;29.00;;;;;;5024308;28;20773;-74